• Join FlightAware (Why Join?)
  • Login
  • US Flag 
04:01PM EDT


 

Airport Tracker/Info


-or-


 

Live Flight TrackerFlight Track Log ✈ CPZ5718 ✈ 21-Jun-2013 ✈ KALB - KMSP

Flight Track Log - Related Links

Times and Time Zones

All times are in EDT time to prevent confusion due to time zone crossing. See the CPZ5718 flight status page for this flight to view local times or setup timezone preferences in your user account.

Time Position Orientation Groundspeed Altitude Reporting Facility
EDT Latitude Longitude Course Direction KTS MPH feet Rate Location/Type
06:43AM 42.7672 -73.8061 328° Northwest 152 175 1,000  Level Boston Center
06:44AM 42.8231 -73.8528 328° Northwest 215 247 3,000 1,980 Climbing Boston Center
06:45AM 42.8783 -73.9247 316° Northwest 239 275 6,100 2,520 Climbing Boston Center
06:46AM 42.9358 -73.9969 317° Northwest 246 283 8,900 2,040 Climbing Boston Center
06:48AM 42.9892 -74.0608 319° Northwest 266 306 10,700 1,800 Climbing Boston Center
06:49AM 43.0561 -74.1761 309° West 313 360 12,900 2,400 Climbing Boston Center
06:50AM 43.1000 -74.2969 296° West 327 376 15,600 2,100 Climbing Boston Center
06:51AM 43.1358 -74.4033 295° West 332 382 17,200 1,560 Climbing Boston Center
06:52AM 43.1775 -74.5214 296° West 342 394 18,800 1,440 Climbing Boston Center
06:53AM 43.2192 -74.6397 296° West 342 394 20,400 1,500 Climbing Boston Center
06:54AM 43.2703 -74.7897 295° West 347 399 22,200 1,560 Climbing Boston Center
06:55AM 43.3136 -74.9142 296° West 357 411 23,600 1,380 Climbing Boston Center
06:56AM 43.3586 -75.0389 296° West 363 418 25,000 1,200 Climbing Boston Center
06:57AM 43.4036 -75.1722 295° West 369 425 26,000 1,140 Climbing Boston Center
06:58AM 43.4561 -75.3206 296° West 389 448 27,300 1,080 Climbing Boston Center
06:59AM 43.5006 -75.4572 294° West 389 448 28,200 780 Climbing Boston Center
07:00AM 43.5469 -75.5942 295° West 389 448 28,900 660 Climbing Boston Center
07:01AM 43.5911 -75.7311 294° West 389 448 29,600 720 Climbing Boston Center
07:02AM 43.6369 -75.8686 295° West 389 448 30,400 780 Climbing Boston Center
07:03AM 43.6850 -76.0064 296° West 389 448 31,200 900 Climbing Boston Center
07:04AM 43.7306 -76.1442 295° West 389 448 32,200 840 Climbing Boston Center
07:05AM 43.7742 -76.2792 294° West 389 448 32,900 600 Climbing Boston Center
07:06AM 43.8175 -76.4114 294° West 384 442 33,500 540 Climbing Boston Center
07:07AM 43.8586 -76.5439 293° West 384 442 34,000 240 Climbing Boston Center
07:08AM 43.9122 -76.6772 299° West 389 448 34,000  Level Boston Center
07:09AM 43.9333 -76.7333 298° West 390 449 34,000  Level Toronto Center
07:10AM 43.9833 -76.8833 295° West 380 437 34,000  Level Toronto Center
07:11AM 44.0500 -77.0167 305° West 390 449 34,000  Level Toronto Center
07:12AM 44.1000 -77.1167 305° West 390 449 34,000  Level Toronto Center
07:13AM 44.1500 -77.2667 295° West 390 449 34,000  Level Toronto Center
07:14AM 44.2167 -77.4000 305° West 390 449 34,000  Level Toronto Center
07:15AM 44.2667 -77.5333 298° West 400 460 34,000  Level Toronto Center
07:16AM 44.3167 -77.6833 295° West 390 449 34,000  Level Toronto Center
07:17AM 44.3667 -77.8167 298° West 400 460 34,000  Level Toronto Center
07:18AM 44.4167 -77.9500 298° West 400 460 34,000  Level Toronto Center
07:19AM 44.4500 -78.0667 292° West 400 460 34,000  Level Toronto Center
07:20AM 44.5000 -78.2333 293° West 400 460 34,000  Level Toronto Center
07:21AM 44.5500 -78.3667 298° West 400 460 34,000  Level Toronto Center
07:22AM 44.6167 -78.5000 305° West 400 460 34,000  Level Toronto Center
07:23AM 44.6667 -78.6500 295° West 400 460 34,000  Level Toronto Center
07:24AM 44.7167 -78.7833 298° West 400 460 34,000  Level Toronto Center
07:25AM 44.7500 -78.9333 287° West 400 460 34,000  Level Toronto Center
07:26AM 44.8000 -79.0500 301° West 400 460 34,000  Level Toronto Center
07:27AM 44.8500 -79.2167 293° West 400 460 34,000  Level Toronto Center
07:28AM 44.9000 -79.3500 298° West 400 460 34,000  Level Toronto Center
07:29AM 44.9500 -79.4833 298° West 400 460 34,000  Level Toronto Center
07:30AM 44.9833 -79.6333 287° West 400 460 34,000  Level Toronto Center
07:31AM 45.0333 -79.7667 298° West 390 449 34,000  Level Toronto Center
07:32AM 45.0833 -79.9000 298° West 380 437 34,000  Level Toronto Center
07:33AM 45.1167 -80.0333 290° West 380 437 34,000  Level Toronto Center
07:34AM 45.1667 -80.1833 295° West 380 437 34,000  Level Toronto Center
07:35AM 45.2167 -80.3167 298° West 380 437 34,000  Level Toronto Center
07:36AM 45.2667 -80.4667 295° West 380 437 34,000  Level Toronto Center
07:37AM 45.3000 -80.5833 292° West 380 437 34,000  Level Toronto Center
07:38AM 45.3500 -80.7167 298° West 380 437 34,000  Level Toronto Center
07:39AM 45.4000 -80.8667 295° West 380 437 34,000  Level Toronto Center
07:40AM 45.4167 -81.0167 279° West 390 449 34,000  Level Toronto Center
07:41AM 45.4667 -81.1500 298° West 390 449 34,000  Level Toronto Center
07:42AM 45.5167 -81.2667 301° West 390 449 34,000  Level Toronto Center
07:43AM 45.5667 -81.4167 296° West 390 449 34,000  Level Toronto Center
07:44AM 45.6000 -81.5667 288° West 380 437 34,000  Level Toronto Center
07:45AM 45.6500 -81.6833 302° West 380 437 34,000  Level Toronto Center
07:46AM 45.7000 -81.8500 293° West 390 449 34,000  Level Toronto Center
07:47AM 45.7167 -81.9667 282° West 380 437 34,000  Level Toronto Center
07:48AM 45.7667 -82.1167 296° West 380 437 34,000  Level Toronto Center
07:49AM 45.8167 -82.2667 296° West 380 437 34,000  Level Toronto Center
07:50AM 45.8500 -82.4167 288° West 380 437 34,000  Level Toronto Center
07:51AM 45.9000 -82.5333 302° West 380 437 34,000  Level Toronto Center
07:52AM 45.9500 -82.6833 296° West 380 437 34,000  Level Toronto Center
07:53AM 45.9667 -82.8167 280° West 390 449 34,000  Level Toronto Center
07:54AM 46.0167 -82.9667 296° West 390 449 34,000  Level Toronto Center
07:55AM 46.0667 -83.1167 296° West 390 449 34,000  Level Toronto Center
07:56AM 46.1167 -83.2333 302° West 390 449 34,000  Level Toronto Center
07:57AM 46.1333 -83.4167 278° West 390 449 34,000  Level Toronto Center
07:58AM 46.1833 -83.5333 302° West 390 449 34,000  Level Toronto Center
07:59AM 46.2333 -83.6833 296° West 390 449 34,000  Level Toronto Center
08:00AM 46.2667 -83.8333 288° West 390 449 34,000  Level Toronto Center
08:01AM 46.3000 -83.9833 288° West 390 449 34,000  Level Toronto Center
08:02AM 46.3500 -84.1333 296° West 390 449 34,000  Level Toronto Center
08:03AM 46.3833 -84.2667 290° West 390 449 34,000  Level Toronto Center
08:04AM 46.4000 -84.4000 280° West 390 449 34,000  Level Toronto Center
08:05AM 46.4333 -84.5667 286° West 400 460 34,000  Level Toronto Center
08:06AM 46.4333 -84.7333 270° West 390 449 34,000  Level Toronto Center
08:07AM 46.4500 -84.8833 279° West 400 460 34,000  Level Toronto Center
08:08AM 46.4500 -85.0333 270° West 390 449 34,000  Level Toronto Center
08:09AM 46.4667 -85.2000 278° West 390 449 34,000  Level Toronto Center
08:10AM 46.4833 -85.3500 279° West 390 449 34,000  Level Toronto Center
08:11AM 46.5000 -85.5167 278° West 390 449 34,000  Level Toronto Center
08:11AM 46.5161 -85.6347 281° West 387 445 34,000  Level Minneapolis Center
08:12AM 46.5275 -85.7903 276° West 388 447 34,000  Level Minneapolis Center
08:13AM 46.5383 -85.9494 276° West 395 455 34,000  Level Minneapolis Center
08:14AM 46.5494 -86.1053 276° West 392 451 34,000  Level Minneapolis Center
08:16AM 46.5600 -86.2617 276° West 392 451 34,000  Level Minneapolis Center
08:17AM 46.5706 -86.4194 276° West 393 452 34,000  Level Minneapolis Center
08:18AM 46.5811 -86.5781 276° West 396 456 34,000  Level Minneapolis Center
08:19AM 46.5897 -86.7336 275° West 391 450 34,000  Level Minneapolis Center
08:20AM 46.6006 -86.8886 276° West 389 448 34,000  Level Minneapolis Center
08:21AM 46.6111 -87.0750 275° West 389 448 34,000  Level Minneapolis Center
08:22AM 46.6208 -87.2356 275° West 397 457 34,000  Level Minneapolis Center
08:23AM 46.6297 -87.3939 275° West 397 457 34,000  Level Minneapolis Center
08:24AM 46.6381 -87.5433 275° West 376 433 34,000  Level Minneapolis Center
08:25AM 46.6456 -87.6944 274° West 375 432 34,000  Level Minneapolis Center
08:26AM 46.6558 -87.8650 275° West 378 435 34,000  Level Minneapolis Center
08:27AM 46.6653 -88.0472 274° West 376 433 34,000  Level Minneapolis Center
08:28AM 46.6725 -88.1964 274° West 372 428 34,000  Level Minneapolis Center
08:29AM 46.6706 -88.3475 269° West 376 433 34,000  Level Minneapolis Center
08:30AM 46.6653 -88.4994 267° West 377 434 34,000  Level Minneapolis Center
08:31AM 46.6608 -88.6508 268° West 377 434 34,000  Level Minneapolis Center
08:32AM 46.6558 -88.8017 267° West 375 432 34,000  Level Minneapolis Center
08:33AM 46.6506 -88.9536 267° West 377 434 34,000  Level Minneapolis Center
08:34AM 46.6422 -89.1358 266° West 379 436 34,000  Level Minneapolis Center
08:35AM 46.6372 -89.2881 267° West 379 436 34,000  Level Minneapolis Center
08:36AM 46.6306 -89.4406 266° West 382 440 34,000  Level Minneapolis Center
08:37AM 46.6247 -89.5961 267° West 384 442 34,000  Level Minneapolis Center
08:38AM 46.6181 -89.7553 267° West 393 452 34,000  Level Minneapolis Center
08:39AM 46.6106 -89.9128 266° West 394 453 34,000  Level Minneapolis Center
08:40AM 46.6003 -90.1333 266° West 393 452 34,000  Level Minneapolis Center
08:42AM 46.5922 -90.2900 266° West 391 450 34,000  Level Minneapolis Center
08:43AM 46.5864 -90.4172 266° West 393 452 34,000  Level Minneapolis Center
08:44AM 46.5767 -90.6064 266° West 394 453 34,000  Level Minneapolis Center
08:45AM 46.5678 -90.7644 265° West 394 453 34,000  Level Minneapolis Center
08:46AM 46.5592 -90.9253 266° West 396 456 34,000  Level Minneapolis Center
08:47AM 46.5511 -91.0822 266° West 395 455 34,000  Level Minneapolis Center
08:48AM 46.5414 -91.2453 265° West 399 459 34,000  Level Minneapolis Center
08:49AM 46.5297 -91.4428 265° West 406 467 34,000  Level Minneapolis Center
08:50AM 46.5189 -91.6050 265° West 406 467 34,000  Level Minneapolis Center
08:51AM 46.5103 -91.7664 266° West 402 463 34,000  Level Minneapolis Center
08:52AM 46.5000 -91.9244 265° West 397 457 34,000  Level Minneapolis Center
08:53AM 46.4908 -92.0853 265° West 398 458 34,000  Level Minneapolis Center
08:54AM 46.4792 -92.2464 264° West 401 461 34,000  Level Minneapolis Center
08:55AM 46.4692 -92.4083 265° West 402 463 34,000  Level Minneapolis Center
08:56AM 46.4581 -92.5694 264° West 401 461 34,000  Level Minneapolis Center
08:57AM 46.4478 -92.7272 265° West 397 457 34,000 -60 Level Minneapolis Center
08:58AM 46.4394 -92.8542 265° West 396 456 33,900  Descending Minneapolis Center
08:59AM 46.4267 -93.0761 265° West 395 455 34,000  Climbing Minneapolis Center
09:00AM 46.4161 -93.2378 265° West 400 460 34,000  Level Minneapolis Center
09:01AM 46.4056 -93.4369 266° West 410 472 34,000  Level Minneapolis Center
09:02AM 46.3983 -93.6008 266° West 408 470 34,000  Level Minneapolis Center
09:03AM 46.3914 -93.7667 267° West 410 472 34,000 -180 Level Minneapolis Center
09:04AM 46.3853 -93.9325 267° West 412 474 33,600 -900 Descending Minneapolis Center
09:06AM 46.3767 -94.1317 266° West 414 476 32,000 -1,200 Descending Minneapolis Center
09:07AM 46.3469 -94.2764 253° West 398 458 31,200 -1,740 Descending Minneapolis Center
09:08AM 46.2181 -94.2819 182° South 437 503 28,500 -2,400 Descending Minneapolis Center
09:09AM 46.1333 -94.1725 138° Southeast 458 527 26,300 -2,220 Descending Minneapolis Center
09:10AM 46.0364 -94.0486 138° Southeast 466 536 24,000 -2,640 Descending Minneapolis Center
09:11AM 45.9194 -93.9056 140° Southeast 464 534 20,900 -2,940 Descending Minneapolis Center
09:12AM 45.8264 -93.7903 139° Southeast 451 519 18,000 -2,700 Descending Minneapolis Center
09:13AM 45.7286 -93.6950 146° Southeast 428 493 15,400 -2,580 Descending Minneapolis Center
09:14AM 45.6225 -93.6344 158° South 412 474 12,800 -2,160 Descending Minneapolis Center
09:15AM 45.5203 -93.5733 157° South 400 460 11,000 -1,320 Descending Minneapolis Center
09:16AM 45.4289 -93.5242 159° South 349 402 10,200 -1,020 Descending Minneapolis Center
09:17AM 45.3433 -93.4833 161° South 327 376 9,000 -1,380 Descending Minneapolis Center
09:18AM 45.2381 -93.4828 180° South 315 362 7,400 -1,200 Descending Minneapolis Center
09:19AM 45.1550 -93.4819 180° South 302 348 6,600 -1,140 Descending Minneapolis Center
09:20AM 45.0739 -93.4808 179° South 294 338 5,100 -1,080 Descending Minneapolis Center
09:21AM 45.0044 -93.4353 155° Southeast 279 321 4,400 -720 Descending Minneapolis Center